createdAt,value
2017-11-23T00:01:00.190Z,72.70
2017-11-23T00:03:26.409Z,73.00
2017-11-23T00:05:53.409Z,73.00
2017-11-23T00:08:19.602Z,73.00
2017-11-23T00:10:45.824Z,73.10
2017-11-23T00:13:12.841Z,73.60
2017-11-23T00:15:39.033Z,73.60
2017-11-23T00:18:05.216Z,73.50
2017-11-23T00:20:32.403Z,73.60
2017-11-23T00:22:58.556Z,73.60
2017-11-23T00:25:24.743Z,73.80
2017-11-23T00:27:50.970Z,73.30
2017-11-23T00:30:17.212Z,73.70
2017-11-23T00:32:43.448Z,73.70
2017-11-23T00:35:09.691Z,74.00
2017-11-23T00:37:35.924Z,73.80
2017-11-23T00:40:02.133Z,73.90
2017-11-23T00:42:28.347Z,73.50
2017-11-23T00:44:54.560Z,73.00
2017-11-23T00:47:20.811Z,72.70
2017-11-23T00:49:47.140Z,73.60
2017-11-23T00:52:13.376Z,73.30
2017-11-23T00:54:39.617Z,73.00
2017-11-23T00:57:05.898Z,72.80
2017-11-23T00:59:32.109Z,72.60
2017-11-23T01:01:59.069Z,72.80
2017-11-23T01:04:26.107Z,73.50
2017-11-23T01:06:53.121Z,73.40
2017-11-23T01:09:19.345Z,73.30
2017-11-23T01:11:45.613Z,73.70
2017-11-23T01:14:12.591Z,73.90
2017-11-23T01:16:38.756Z,73.90
2017-11-23T01:19:05.036Z,74.20
2017-11-23T01:21:31.216Z,73.40
2017-11-23T01:23:57.460Z,73.50
2017-11-23T01:26:24.406Z,74.80
2017-11-23T01:28:50.606Z,74.30
2017-11-23T01:31:16.874Z,74.50
2017-11-23T01:33:43.775Z,74.40
2017-11-23T01:36:10.022Z,74.40
2017-11-23T01:38:36.962Z,73.80
2017-11-23T01:41:03.232Z,73.80
2017-11-23T01:43:29.440Z,73.90
2017-11-23T01:45:55.633Z,74.30
2017-11-23T01:48:22.157Z,74.10
2017-11-23T01:50:48.448Z,73.90
2017-11-23T01:53:14.703Z,74.10
2017-11-23T01:55:41.044Z,74.00
2017-11-23T01:58:07.297Z,74.40
2017-11-23T02:00:33.596Z,74.50
2017-11-23T02:02:59.864Z,74.40
2017-11-23T02:05:26.065Z,73.90
2017-11-23T02:07:52.403Z,73.60
2017-11-23T02:10:19.060Z,74.90
2017-11-23T02:12:46.052Z,73.30
2017-11-23T02:15:12.305Z,73.40
2017-11-23T02:17:38.572Z,74.30
2017-11-23T02:20:05.592Z,73.80
2017-11-23T02:22:31.875Z,73.90
2017-11-23T02:24:58.160Z,73.80
2017-11-23T02:27:25.209Z,74.40
2017-11-23T02:29:51.456Z,74.60
2017-11-23T02:32:17.763Z,74.00
2017-11-23T02:34:44.076Z,73.40
2017-11-23T02:37:10.404Z,74.40
2017-11-23T02:39:36.626Z,74.70
2017-11-23T02:42:02.895Z,74.50
2017-11-23T02:44:30.504Z,73.80
2017-11-23T02:46:56.791Z,73.90
2017-11-23T02:49:23.800Z,73.50
2017-11-23T02:51:50.306Z,73.60
2017-11-23T02:54:16.552Z,73.50
2017-11-23T02:56:42.771Z,73.30
2017-11-23T02:59:09.042Z,74.00
2017-11-23T03:01:35.233Z,73.30
2017-11-23T03:04:01.472Z,73.00
2017-11-23T03:06:27.756Z,74.00
2017-11-23T03:08:54.791Z,73.90
2017-11-23T03:11:21.079Z,73.60
2017-11-23T03:13:47.348Z,73.40
2017-11-23T03:16:14.309Z,74.20
2017-11-23T03:18:40.580Z,74.20
2017-11-23T03:21:06.784Z,74.30
2017-11-23T03:23:33.759Z,73.60
2017-11-23T03:26:00.024Z,73.60
2017-11-23T03:28:26.960Z,73.90
2017-11-23T03:30:54.888Z,73.40
2017-11-23T03:33:21.144Z,73.40
2017-11-23T03:35:47.354Z,74.00
2017-11-23T03:38:13.562Z,73.60
2017-11-23T03:40:40.589Z,73.90
2017-11-23T03:43:07.653Z,74.70
2017-11-23T03:45:34.695Z,74.60
2017-11-23T03:48:01.676Z,74.20
2017-11-23T03:50:27.908Z,74.20
2017-11-23T03:52:54.198Z,74.60
2017-11-23T03:55:21.174Z,74.70
2017-11-23T03:57:47.416Z,74.70
2017-11-23T04:00:13.736Z,74.30
2017-11-23T04:02:39.964Z,73.60
2017-11-23T04:05:06.232Z,74.70
2017-11-23T04:07:32.476Z,75.30
2017-11-23T04:09:59.425Z,74.40
2017-11-23T04:12:26.422Z,74.40
2017-11-23T04:14:52.647Z,74.00
2017-11-23T04:17:18.928Z,73.90
2017-11-23T04:19:45.955Z,74.10
2017-11-23T04:22:12.965Z,74.40
2017-11-23T04:24:39.189Z,74.50
2017-11-23T04:27:05.503Z,74.70
2017-11-23T04:29:31.747Z,74.90
2017-11-23T04:31:57.937Z,75.00
2017-11-23T04:34:24.138Z,74.90
2017-11-23T04:36:50.380Z,75.10
2017-11-23T04:39:16.587Z,74.70
2017-11-23T04:41:42.859Z,74.50
2017-11-23T04:44:09.871Z,73.80
2017-11-23T04:46:36.140Z,73.80
2017-11-23T04:49:02.384Z,73.90
2017-11-23T04:51:28.627Z,73.10
2017-11-23T04:53:54.892Z,74.30
2017-11-23T04:56:21.870Z,74.80
2017-11-23T04:58:48.814Z,74.10
2017-11-23T05:01:15.838Z,74.90
2017-11-23T05:03:42.044Z,74.90
2017-11-23T05:06:08.212Z,75.20
2017-11-23T05:08:35.143Z,74.80
2017-11-23T05:11:01.305Z,74.80
2017-11-23T05:13:27.496Z,75.20
2017-11-23T05:15:53.776Z,74.20
2017-11-23T05:18:19.999Z,74.90
2017-11-23T05:20:46.213Z,74.70
2017-11-23T05:23:13.166Z,75.40
2017-11-23T05:25:39.418Z,75.40
2017-11-23T05:28:05.685Z,75.10
2017-11-23T05:30:31.921Z,75.10
2017-11-23T05:32:58.895Z,75.10
2017-11-23T05:35:26.073Z,75.00
2017-11-23T05:38:04.516Z,74.70
2017-11-23T05:40:32.342Z,75.40
2017-11-23T05:42:58.596Z,75.60
2017-11-23T05:45:24.821Z,75.60
2017-11-23T05:47:50.977Z,75.40
2017-11-23T05:50:17.169Z,75.10
2017-11-23T05:52:43.400Z,74.80
2017-11-23T05:55:09.656Z,74.30
2017-11-23T05:57:35.859Z,74.70
2017-11-23T06:00:02.082Z,74.50
2017-11-23T06:02:28.277Z,74.40
2017-11-23T06:04:54.471Z,74.90
2017-11-23T06:07:36.462Z,74.20
2017-11-23T06:10:07.084Z,74.90
2017-11-23T06:12:33.338Z,74.90
2017-11-23T06:15:00.333Z,74.60
2017-11-23T06:17:29.660Z,74.50
2017-11-23T06:19:55.919Z,74.60
2017-11-23T06:22:22.853Z,75.10
2017-11-23T06:24:49.761Z,74.90
2017-11-23T06:27:15.966Z,74.80
2017-11-23T06:29:42.184Z,75.10
2017-11-23T06:32:09.264Z,75.50
2017-11-23T06:34:35.458Z,75.40
2017-11-23T06:37:01.698Z,74.80
2017-11-23T06:39:27.894Z,73.60
2017-11-23T06:41:54.825Z,74.50
2017-11-23T06:44:21.032Z,74.50
2017-11-23T06:46:47.280Z,75.00
2017-11-23T06:49:13.472Z,75.10
2017-11-23T06:51:39.699Z,75.20
2017-11-23T06:54:05.918Z,74.30
2017-11-23T06:56:33.261Z,74.20
2017-11-23T06:58:59.555Z,74.90
2017-11-23T07:01:26.536Z,73.50
2017-11-23T07:03:52.750Z,73.40
2017-11-23T07:06:19.004Z,72.80
2017-11-23T07:08:45.278Z,73.70
2017-11-23T07:11:11.523Z,73.40
2017-11-23T07:13:38.463Z,73.60
2017-11-23T07:16:04.721Z,73.60
2017-11-23T07:18:30.864Z,73.20
2017-11-23T07:20:57.043Z,73.00
2017-11-23T07:23:23.241Z,73.50
2017-11-23T07:25:49.525Z,73.60
2017-11-23T07:28:19.575Z,73.00
2017-11-23T07:30:45.805Z,73.60
2017-11-23T07:33:12.079Z,73.60
2017-11-23T07:35:40.420Z,73.40
2017-11-23T07:38:10.856Z,73.40
2017-11-23T07:40:41.277Z,74.20
2017-11-23T07:43:11.097Z,73.70
2017-11-23T07:45:40.211Z,73.40
2017-11-23T07:48:09.666Z,73.50
2017-11-23T07:50:39.796Z,73.40
2017-11-23T07:53:06.082Z,72.80
2017-11-23T07:55:33.051Z,72.90
2017-11-23T07:58:00.177Z,72.90
2017-11-23T08:00:28.107Z,72.20
2017-11-23T08:02:54.317Z,72.30
2017-11-23T08:05:21.336Z,71.80
2017-11-23T08:07:49.542Z,71.80
2017-11-23T08:10:15.822Z,71.50
2017-11-23T08:12:43.543Z,71.20
2017-11-23T08:15:11.200Z,71.20
2017-11-23T08:17:37.413Z,70.60
2017-11-23T08:20:05.128Z,70.90
2017-11-23T08:22:34.492Z,69.90
2017-11-23T08:25:03.481Z,69.30
2017-11-23T08:27:30.632Z,68.30
2017-11-23T08:29:56.843Z,67.70
2017-11-23T08:32:23.061Z,67.90
2017-11-23T08:34:49.306Z,68.30
2017-11-23T08:37:15.518Z,68.00
2017-11-23T08:39:41.705Z,67.30
2017-11-23T08:42:08.009Z,68.10
2017-11-23T08:44:35.914Z,68.40
2017-11-23T08:47:02.215Z,67.50
2017-11-23T08:49:28.492Z,67.80
2017-11-23T08:51:56.337Z,66.90
2017-11-23T08:54:22.526Z,66.90
2017-11-23T08:56:50.778Z,66.20
2017-11-23T08:59:17.788Z,67.10
2017-11-23T09:01:45.877Z,65.80
2017-11-23T09:04:13.839Z,64.70
2017-11-23T09:06:40.888Z,64.80
2017-11-23T09:09:07.866Z,62.10
2017-11-23T09:11:34.065Z,62.10
2017-11-23T09:14:01.030Z,57.90
2017-11-23T09:16:27.323Z,57.90
2017-11-23T09:18:54.292Z,53.70
2017-11-23T09:21:21.306Z,54.20
2017-11-23T09:23:47.576Z,54.20
2017-11-23T09:26:13.835Z,53.50
2017-11-23T09:28:40.058Z,54.10
2017-11-23T09:31:06.275Z,53.90
2017-11-23T09:33:32.533Z,53.30
2017-11-23T09:35:58.792Z,54.30
2017-11-23T09:38:25.853Z,53.20
2017-11-23T09:40:53.752Z,54.40
2017-11-23T09:43:20.058Z,54.30
2017-11-23T09:45:46.310Z,53.00
2017-11-23T09:48:12.568Z,54.20
2017-11-23T09:50:38.859Z,53.10
2017-11-23T09:53:05.102Z,51.00
2017-11-23T09:55:31.401Z,50.80
2017-11-23T09:57:58.414Z,49.30
2017-11-23T10:00:24.669Z,49.20
2017-11-23T10:02:51.699Z,46.80
2017-11-23T10:05:18.700Z,46.30
2017-11-23T10:07:44.916Z,46.30
2017-11-23T10:10:11.174Z,47.50
2017-11-23T10:12:37.401Z,45.60
2017-11-23T10:15:03.584Z,43.30
2017-11-23T10:17:30.526Z,46.20
2017-11-23T10:19:57.533Z,45.20
2017-11-23T10:22:23.775Z,45.20
2017-11-23T10:24:49.988Z,43.70
2017-11-23T10:27:16.172Z,44.70
2017-11-23T10:29:42.409Z,47.10
2017-11-23T10:32:08.578Z,45.80
2017-11-23T10:34:34.820Z,47.60
2017-11-23T10:37:01.036Z,46.70
2017-11-23T10:39:27.208Z,44.80
2017-11-23T10:41:54.365Z,46.60
2017-11-23T10:44:20.570Z,46.40
2017-11-23T10:46:47.573Z,46.50
2017-11-23T10:49:13.892Z,46.40
2017-11-23T10:51:40.139Z,43.90
2017-11-23T10:54:06.355Z,44.00
2017-11-23T10:56:32.872Z,44.90
2017-11-23T10:58:59.050Z,42.70
2017-11-23T11:01:25.996Z,45.30
2017-11-23T11:03:52.275Z,45.20
2017-11-23T11:06:18.448Z,43.80
2017-11-23T11:08:44.668Z,43.30
2017-11-23T11:11:10.913Z,43.60
2017-11-23T11:13:37.130Z,43.20
2017-11-23T11:16:03.376Z,42.10
2017-11-23T11:18:29.676Z,41.30
2017-11-23T11:20:55.850Z,40.60
2017-11-23T11:23:22.093Z,39.10
2017-11-23T11:25:48.380Z,41.30
2017-11-23T11:28:14.647Z,41.70
2017-11-23T11:30:40.874Z,41.80
2017-11-23T11:33:07.110Z,42.60
2017-11-23T11:35:33.327Z,45.10
2017-11-23T11:37:59.492Z,44.80
2017-11-23T11:40:26.172Z,46.40
2017-11-23T11:43:11.200Z,47.40
2017-11-23T11:45:38.491Z,47.50
2017-11-23T11:48:04.688Z,47.40
2017-11-23T11:50:31.679Z,46.40
2017-11-23T11:52:57.936Z,46.30
2017-11-23T11:55:24.217Z,45.50
2017-11-23T11:57:50.449Z,44.30
2017-11-23T12:03:08.456Z,46.40
2017-11-23T12:05:34.746Z,47.90
2017-11-23T12:08:00.972Z,46.40
2017-11-23T12:10:27.196Z,47.30
2017-11-23T12:12:53.451Z,49.00
2017-11-23T12:15:32.059Z,49.20
2017-11-23T12:18:10.717Z,50.10
2017-11-23T12:23:40.606Z,50.50
2017-11-23T12:26:13.051Z,50.90
2017-11-23T12:31:33.950Z,51.30
2017-11-23T12:34:00.168Z,51.30
2017-11-23T12:36:26.383Z,52.80
2017-11-23T12:38:52.605Z,53.80
2017-11-23T12:41:18.837Z,53.90
2017-11-23T12:43:45.028Z,54.40
2017-11-23T12:46:11.226Z,54.50
2017-11-23T12:48:37.379Z,55.10
2017-11-23T12:51:04.361Z,55.40
2017-11-23T12:53:30.647Z,55.30
2017-11-23T12:55:57.586Z,55.80
2017-11-23T12:58:24.494Z,56.10
2017-11-23T13:00:50.681Z,56.10
2017-11-23T13:03:16.822Z,56.60
2017-11-23T13:05:42.983Z,55.20
2017-11-23T13:08:09.130Z,53.50
2017-11-23T13:10:36.097Z,53.70
2017-11-23T13:13:02.260Z,53.60
2017-11-23T13:15:28.501Z,54.00
2017-11-23T13:17:54.675Z,54.80
2017-11-23T13:20:21.574Z,55.50
2017-11-23T13:22:47.787Z,55.50
2017-11-23T13:25:14.002Z,56.40
2017-11-23T13:27:40.160Z,57.10
2017-11-23T13:30:06.333Z,56.20
2017-11-23T13:32:33.352Z,57.40
2017-11-23T13:34:59.543Z,57.40
2017-11-23T13:37:25.703Z,58.20
2017-11-23T13:39:51.943Z,57.50
2017-11-23T13:42:18.901Z,58.20
2017-11-23T13:44:45.139Z,58.20
2017-11-23T13:47:11.324Z,58.70
2017-11-23T13:49:37.541Z,58.90
2017-11-23T13:52:03.732Z,58.60
2017-11-23T13:54:29.962Z,58.80
2017-11-23T13:56:56.195Z,58.90
2017-11-23T13:59:22.379Z,58.40
2017-11-23T14:01:48.613Z,58.60
2017-11-23T14:04:15.558Z,59.60
2017-11-23T14:06:41.798Z,59.50
2017-11-23T14:09:08.690Z,59.90
2017-11-23T14:11:34.921Z,59.90
2017-11-23T14:14:01.117Z,59.80
2017-11-23T14:16:27.401Z,60.30
2017-11-23T14:18:53.579Z,59.90
2017-11-23T14:21:19.802Z,60.70
2017-11-23T14:23:45.958Z,60.90
2017-11-23T14:26:12.147Z,61.00
2017-11-23T14:28:38.337Z,61.70
2017-11-23T14:31:04.533Z,62.10
2017-11-23T14:33:30.698Z,62.00
2017-11-23T14:35:56.894Z,61.80
2017-11-23T14:38:23.057Z,61.70
2017-11-23T14:40:49.250Z,62.40
2017-11-23T14:43:15.463Z,62.40
2017-11-23T14:45:41.673Z,64.00
2017-11-23T14:48:07.905Z,63.90
2017-11-23T14:50:34.122Z,63.60
2017-11-23T14:53:00.429Z,62.40
2017-11-23T14:55:27.335Z,62.60
2017-11-23T14:57:53.502Z,62.50
2017-11-23T15:00:19.718Z,61.80
2017-11-23T15:02:45.885Z,60.80
2017-11-23T15:05:12.112Z,61.40
2017-11-23T15:07:38.276Z,61.50
2017-11-23T15:10:04.463Z,60.00
2017-11-23T15:12:30.663Z,61.20
2017-11-23T15:14:56.833Z,60.70
2017-11-23T15:17:23.010Z,59.90
2017-11-23T15:19:49.188Z,60.30
2017-11-23T15:22:15.339Z,60.50
2017-11-23T15:24:41.572Z,60.90
2017-11-23T15:27:07.790Z,60.70
2017-11-23T15:29:34.025Z,61.30
2017-11-23T15:32:00.285Z,60.40
2017-11-23T15:34:26.450Z,61.10
2017-11-23T15:36:52.597Z,61.10
2017-11-23T15:39:18.734Z,61.60
2017-11-23T15:41:44.910Z,62.20
2017-11-23T15:44:11.820Z,62.50
2017-11-23T15:46:38.051Z,62.40
2017-11-23T15:49:04.270Z,62.10
2017-11-23T15:51:30.431Z,61.90
2017-11-23T15:53:57.330Z,63.10
2017-11-23T15:56:23.525Z,62.90
2017-11-23T15:58:50.510Z,63.50
2017-11-23T16:01:16.703Z,64.00
2017-11-23T16:03:42.909Z,64.20
2017-11-23T16:06:09.782Z,64.60
2017-11-23T16:08:35.944Z,64.60
2017-11-23T16:11:02.130Z,64.90
2017-11-23T16:13:28.325Z,65.50
2017-11-23T16:15:55.266Z,64.40
2017-11-23T16:18:21.456Z,64.40
2017-11-23T16:20:47.705Z,64.50
2017-11-23T16:23:13.931Z,64.90
2017-11-23T16:25:40.117Z,64.40
2017-11-23T16:28:06.350Z,64.50
2017-11-23T16:30:32.638Z,65.10
2017-11-23T16:32:59.574Z,64.50
2017-11-23T16:35:25.775Z,64.50
2017-11-23T16:38:01.911Z,64.30
2017-11-23T16:40:43.235Z,63.80
2017-11-23T16:43:16.390Z,63.70
2017-11-23T16:45:48.732Z,63.70
2017-11-23T16:48:21.917Z,63.80
2017-11-23T16:50:53.960Z,62.70
2017-11-23T16:53:26.326Z,62.70
2017-11-23T16:59:00.311Z,62.20
2017-11-23T17:01:32.570Z,62.70
2017-11-23T17:04:20.535Z,63.00
2017-11-23T17:06:52.794Z,63.00
2017-11-23T17:09:19.980Z,63.00
2017-11-23T17:11:52.346Z,63.80
2017-11-23T17:14:33.469Z,64.20
2017-11-23T17:17:17.083Z,64.30
2017-11-23T17:19:43.341Z,64.30
2017-11-23T17:22:09.578Z,64.60
2017-11-23T17:24:36.782Z,64.40
2017-11-23T17:27:02.957Z,64.00
2017-11-23T17:29:29.162Z,64.80
2017-11-23T17:31:56.043Z,65.10
2017-11-23T17:34:22.266Z,65.00
2017-11-23T17:36:48.434Z,64.40
2017-11-23T17:39:14.611Z,64.80
2017-11-23T17:41:40.832Z,64.50
2017-11-23T17:44:06.982Z,63.60
2017-11-23T17:46:33.186Z,63.50
2017-11-23T17:48:59.407Z,64.30
2017-11-23T17:51:26.326Z,64.60
2017-11-23T17:53:52.522Z,64.60
2017-11-23T17:56:19.023Z,64.70
2017-11-23T17:58:45.199Z,65.40
2017-11-23T18:01:11.411Z,65.10
2017-11-23T18:03:37.665Z,64.30
2017-11-23T18:06:03.855Z,64.80
2017-11-23T18:08:30.078Z,65.30
2017-11-23T18:10:56.207Z,65.10
2017-11-23T18:13:22.359Z,65.30
2017-11-23T18:15:48.525Z,65.60
2017-11-23T18:18:14.748Z,65.70
2017-11-23T18:20:41.716Z,65.70
2017-11-23T18:23:07.920Z,65.40
2017-11-23T18:25:34.862Z,64.80
2017-11-23T18:28:01.013Z,64.80
2017-11-23T18:30:28.333Z,64.90
2017-11-23T18:32:54.588Z,65.30
2017-11-23T18:35:21.474Z,66.00
2017-11-23T18:37:47.590Z,66.00
2017-11-23T18:40:13.781Z,65.60
2017-11-23T18:42:40.753Z,66.10
2017-11-23T18:45:06.895Z,66.00
2017-11-23T18:47:33.117Z,66.30
2017-11-23T18:49:59.335Z,66.30
2017-11-23T18:52:25.519Z,67.20
2017-11-23T18:54:51.723Z,67.30
2017-11-23T18:57:17.903Z,67.40
2017-11-23T18:59:44.846Z,66.10
2017-11-23T19:02:11.051Z,66.10
2017-11-23T19:04:37.183Z,66.60
2017-11-23T19:07:04.137Z,67.10
2017-11-23T19:09:31.058Z,66.60
2017-11-23T19:11:57.249Z,66.60
2017-11-23T19:14:23.496Z,66.60
2017-11-23T19:16:49.774Z,66.90
2017-11-23T19:19:15.993Z,66.80
2017-11-23T19:21:42.972Z,67.00
2017-11-23T19:24:09.186Z,66.80
2017-11-23T19:26:35.388Z,67.40
2017-11-23T19:29:02.392Z,66.80
2017-11-23T19:31:28.601Z,66.70
2017-11-23T19:33:54.794Z,65.90
2017-11-23T19:36:21.764Z,66.30
2017-11-23T19:38:47.931Z,66.20
2017-11-23T19:41:14.181Z,67.10
2017-11-23T19:43:40.348Z,66.30
2017-11-23T19:46:06.561Z,66.50
2017-11-23T19:48:33.493Z,66.30
2017-11-23T19:51:00.521Z,66.50
2017-11-23T19:53:26.718Z,66.40
2017-11-23T19:55:52.887Z,66.70
2017-11-23T19:58:19.049Z,66.90
2017-11-23T20:00:45.191Z,66.50
2017-11-23T20:03:11.726Z,66.90
2017-11-23T20:05:37.895Z,67.10
2017-11-23T20:08:04.095Z,67.10
2017-11-23T20:10:30.342Z,68.30
2017-11-23T20:12:56.592Z,68.50
2017-11-23T20:15:22.818Z,68.10
2017-11-23T20:17:49.721Z,69.40
2017-11-23T20:20:15.926Z,68.90
2017-11-23T20:22:42.145Z,68.70
2017-11-23T20:25:08.340Z,68.60
2017-11-23T20:27:35.273Z,68.70
2017-11-23T20:30:02.174Z,69.20
2017-11-23T20:32:28.381Z,68.50
2017-11-23T20:34:54.570Z,68.70
2017-11-23T20:37:20.788Z,68.40
2017-11-23T20:39:46.950Z,68.60
2017-11-23T20:42:13.962Z,68.90
2017-11-23T20:44:40.113Z,68.70
2017-11-23T20:47:06.339Z,68.30
2017-11-23T20:49:32.589Z,67.10
2017-11-23T20:51:58.794Z,67.10
2017-11-23T20:54:24.964Z,66.20
2017-11-23T20:56:51.233Z,66.10
2017-11-23T20:59:17.519Z,66.20
2017-11-23T21:01:43.689Z,65.60
2017-11-23T21:04:09.887Z,65.40
2017-11-23T21:06:36.115Z,65.30
2017-11-23T21:09:02.413Z,65.80
2017-11-23T21:11:29.323Z,66.40
2017-11-23T21:13:55.513Z,66.30
2017-11-23T21:16:21.800Z,66.00
2017-11-23T21:18:47.971Z,67.00
2017-11-23T21:21:14.261Z,66.60
2017-11-23T21:23:41.192Z,66.20
2017-11-23T21:26:07.410Z,65.80
2017-11-23T21:28:34.371Z,66.40
2017-11-23T21:31:00.623Z,66.40
2017-11-23T21:33:27.554Z,67.00
2017-11-23T21:35:53.782Z,67.00
2017-11-23T21:38:20.738Z,67.70
2017-11-23T21:40:47.688Z,67.70
2017-11-23T21:43:14.575Z,67.10
2017-11-23T21:45:40.749Z,67.10
2017-11-23T21:48:07.716Z,67.10
2017-11-23T21:50:33.893Z,67.00
2017-11-23T21:53:00.051Z,67.40
2017-11-23T21:55:26.964Z,66.70
2017-11-23T21:57:53.083Z,66.60
2017-11-23T22:00:19.254Z,66.50
2017-11-23T22:02:46.411Z,67.20
2017-11-23T22:05:12.870Z,68.30
2017-11-23T22:07:39.364Z,68.10
2017-11-23T22:10:05.792Z,68.80
2017-11-23T22:12:32.334Z,68.80
2017-11-23T22:14:58.869Z,69.30
2017-11-23T22:17:25.378Z,70.40
2017-11-23T22:19:51.792Z,69.50
2017-11-23T22:22:18.481Z,69.90
2017-11-23T22:24:45.534Z,70.50
2017-11-23T22:27:12.018Z,70.50
2017-11-23T22:29:38.354Z,70.50
2017-11-23T22:32:04.550Z,70.40
2017-11-23T22:34:31.092Z,70.80
2017-11-23T22:36:57.483Z,70.80
2017-11-23T22:39:24.583Z,70.70
2017-11-23T22:41:50.954Z,70.60
2017-11-23T22:44:17.989Z,70.40
2017-11-23T22:46:45.263Z,70.80
2017-11-23T22:49:13.235Z,70.80
2017-11-23T22:51:39.923Z,70.70
2017-11-23T22:54:06.390Z,70.40
2017-11-23T22:56:32.957Z,71.00
2017-11-23T22:58:59.451Z,70.60
2017-11-23T23:01:26.708Z,71.40
2017-11-23T23:03:52.936Z,71.40
2017-11-23T23:06:19.130Z,71.40
2017-11-23T23:08:45.349Z,71.70
2017-11-23T23:11:11.545Z,72.00
2017-11-23T23:13:38.477Z,72.20
2017-11-23T23:16:04.837Z,72.20
2017-11-23T23:18:31.030Z,72.10
2017-11-23T23:20:57.171Z,71.90
2017-11-23T23:23:24.111Z,71.70
2017-11-23T23:25:51.024Z,72.40
2017-11-23T23:28:17.215Z,72.30
2017-11-23T23:30:43.413Z,72.30
2017-11-23T23:33:10.321Z,71.50
2017-11-23T23:35:36.544Z,71.50
2017-11-23T23:38:02.746Z,71.10
2017-11-23T23:40:28.899Z,71.20
2017-11-23T23:42:55.063Z,71.50
2017-11-23T23:45:21.994Z,70.50
2017-11-23T23:47:58.153Z,70.40
2017-11-23T23:50:24.333Z,70.30
2017-11-23T23:52:50.552Z,70.40
2017-11-23T23:55:16.794Z,70.80
2017-11-23T23:57:43.065Z,70.60
